createdAt,value
2022-08-23T00:02:27.884Z,18.22
2022-08-23T00:05:08.829Z,18.14
2022-08-23T00:07:42.090Z,18.13
2022-08-23T00:10:12.274Z,18.16
2022-08-23T00:12:39.085Z,18.14
2022-08-23T00:15:07.383Z,18.15
2022-08-23T00:17:35.602Z,18.13
2022-08-23T00:20:08.083Z,18.04
2022-08-23T00:22:34.693Z,18.07
2022-08-23T00:25:01.245Z,18.07
2022-08-23T00:27:28.560Z,17.97
2022-08-23T00:29:56.243Z,17.99
2022-08-23T00:32:29.707Z,17.97
2022-08-23T00:34:57.040Z,17.94
2022-08-23T00:37:23.912Z,17.88
2022-08-23T00:39:52.939Z,17.81
2022-08-23T00:43:01.779Z,17.79
2022-08-23T00:46:00.682Z,17.72
2022-08-23T00:48:27.529Z,17.70
2022-08-23T00:51:23.697Z,17.62
2022-08-23T00:53:55.665Z,17.64
2022-08-23T00:56:25.535Z,17.60
2022-08-23T00:58:54.367Z,17.60
2022-08-23T01:01:23.678Z,17.53
2022-08-23T01:04:04.983Z,17.59
2022-08-23T01:06:46.833Z,17.57
2022-08-23T01:09:18.110Z,17.52
2022-08-23T01:12:05.936Z,17.46
2022-08-23T01:14:40.872Z,17.55
2022-08-23T01:17:16.591Z,17.52
2022-08-23T01:20:14.827Z,17.38
2022-08-23T01:22:52.633Z,17.50
2022-08-23T01:25:22.095Z,17.51
2022-08-23T01:27:49.155Z,17.49
2022-08-23T01:30:19.484Z,17.55
2022-08-23T01:32:50.003Z,17.58
2022-08-23T01:35:17.826Z,17.60
2022-08-23T01:37:45.509Z,17.62
2022-08-23T01:40:13.104Z,17.64
2022-08-23T01:42:41.699Z,17.62
2022-08-23T01:45:13.057Z,17.61
2022-08-23T01:47:40.757Z,17.60
2022-08-23T01:50:08.933Z,17.52
2022-08-23T01:52:37.081Z,17.47
2022-08-23T01:55:04.792Z,17.48
2022-08-23T01:57:32.640Z,17.41
2022-08-23T01:59:59.362Z,17.38
2022-08-23T02:02:25.955Z,17.34
2022-08-23T02:04:53.077Z,17.39
2022-08-23T02:07:20.889Z,17.39
2022-08-23T02:09:47.395Z,17.43
2022-08-23T02:12:13.907Z,17.38
2022-08-23T02:14:42.248Z,17.40
2022-08-23T02:17:09.374Z,17.43
2022-08-23T02:19:38.395Z,17.39
2022-08-23T02:22:06.980Z,17.31
2022-08-23T02:24:34.474Z,17.31
2022-08-23T02:27:05.165Z,17.28
2022-08-23T02:29:35.230Z,17.18
2022-08-23T02:32:06.106Z,17.13
2022-08-23T02:34:33.352Z,17.09
2022-08-23T02:37:00.430Z,17.08
2022-08-23T02:39:27.164Z,17.02
2022-08-23T02:41:53.759Z,16.84
2022-08-23T02:44:21.031Z,16.90
2022-08-23T02:46:47.934Z,16.84
2022-08-23T02:49:15.354Z,16.82
2022-08-23T02:51:42.471Z,16.85
2022-08-23T02:54:09.365Z,16.86
2022-08-23T02:56:36.183Z,16.86
2022-08-23T02:59:04.741Z,16.96
2022-08-23T03:01:35.634Z,16.94
2022-08-23T03:04:03.849Z,17.02
2022-08-23T03:06:30.664Z,17.02
2022-08-23T03:08:57.412Z,17.08
2022-08-23T03:11:25.296Z,17.06
2022-08-23T03:13:53.521Z,17.11
2022-08-23T03:16:20.865Z,17.11
2022-08-23T03:18:48.512Z,17.18
2022-08-23T03:21:15.842Z,17.16
2022-08-23T03:23:43.070Z,17.19
2022-08-23T03:26:12.426Z,17.19
2022-08-23T03:28:40.840Z,17.23
2022-08-23T03:31:09.352Z,17.19
2022-08-23T03:33:36.415Z,17.21
2022-08-23T03:36:07.343Z,17.15
2022-08-23T03:38:34.621Z,17.20
2022-08-23T03:41:01.923Z,17.22
2022-08-23T03:43:28.851Z,17.24
2022-08-23T03:45:55.879Z,17.28
2022-08-23T03:48:22.620Z,17.26
2022-08-23T03:50:49.285Z,17.20
2022-08-23T03:53:16.356Z,17.16
2022-08-23T03:55:44.424Z,17.19
2022-08-23T03:58:11.798Z,17.25
2022-08-23T04:00:39.172Z,17.21
2022-08-23T04:03:05.891Z,17.25
2022-08-23T04:05:32.623Z,17.28
2022-08-23T04:07:59.566Z,17.29
2022-08-23T04:10:26.439Z,17.28
2022-08-23T04:12:54.851Z,17.25
2022-08-23T04:15:22.249Z,17.22
2022-08-23T04:17:48.880Z,17.26
2022-08-23T04:20:15.613Z,17.22
2022-08-23T04:22:42.232Z,17.26
2022-08-23T04:25:33.737Z,17.26
2022-08-23T04:27:57.811Z,17.27
2022-08-23T04:30:25.181Z,17.32
2022-08-23T04:32:52.516Z,17.26
2022-08-23T04:35:19.210Z,17.29
2022-08-23T04:37:45.770Z,17.30
2022-08-23T04:40:31.429Z,17.30
2022-08-23T04:42:58.245Z,17.31
2022-08-23T04:45:27.163Z,17.38
2022-08-23T04:47:54.046Z,17.39
2022-08-23T04:50:21.708Z,17.40
2022-08-23T04:52:48.289Z,17.45
2022-08-23T04:55:15.022Z,17.46
2022-08-23T04:57:42.589Z,17.50
2022-08-23T05:00:15.075Z,17.55
2022-08-23T05:02:41.905Z,17.55
2022-08-23T05:05:11.295Z,17.59
2022-08-23T05:07:42.505Z,17.59
2022-08-23T05:10:13.419Z,17.59
2022-08-23T05:12:40.805Z,17.62
2022-08-23T05:15:09.631Z,17.70
2022-08-23T05:17:37.194Z,17.72
2022-08-23T05:20:05.495Z,17.72
2022-08-23T05:22:37.083Z,17.76
2022-08-23T05:25:04.146Z,17.78
2022-08-23T05:27:30.649Z,17.80
2022-08-23T05:29:58.181Z,17.87
2022-08-23T05:32:24.781Z,17.92
2022-08-23T05:34:51.347Z,18.00
2022-08-23T05:37:18.168Z,18.08
2022-08-23T05:39:44.778Z,18.14
2022-08-23T05:42:13.711Z,18.20
2022-08-23T05:44:40.294Z,18.31
2022-08-23T05:47:10.642Z,18.35
2022-08-23T05:49:38.894Z,18.41
2022-08-23T05:52:12.036Z,18.52
2022-08-23T05:54:39.236Z,18.54
2022-08-23T05:57:05.915Z,18.57
2022-08-23T05:59:32.428Z,18.65
2022-08-23T06:01:58.994Z,18.70
2022-08-23T06:04:25.510Z,18.75
2022-08-23T06:06:52.117Z,18.75
2022-08-23T06:09:19.307Z,18.77
2022-08-23T06:11:47.524Z,18.79
2022-08-23T06:14:15.158Z,18.79
2022-08-23T06:16:44.917Z,18.85
2022-08-23T06:19:12.798Z,18.84
2022-08-23T06:21:39.869Z,18.98
2022-08-23T06:24:07.237Z,19.02
2022-08-23T06:26:43.310Z,19.06
2022-08-23T06:29:13.456Z,19.17
2022-08-23T06:31:45.313Z,19.23
2022-08-23T06:34:19.443Z,19.32
2022-08-23T06:36:48.762Z,19.39
2022-08-23T06:39:17.698Z,19.46
2022-08-23T06:41:44.782Z,19.51
2022-08-23T06:44:12.167Z,19.58
2022-08-23T06:46:38.819Z,19.69
2022-08-23T06:49:08.062Z,19.77
2022-08-23T06:51:46.248Z,19.82
2022-08-23T06:54:14.900Z,19.99
2022-08-23T06:56:42.906Z,20.06
2022-08-23T06:59:09.786Z,20.13
2022-08-23T07:01:46.097Z,20.86
2022-08-23T07:04:16.248Z,21.07
2022-08-23T07:06:43.548Z,21.31
2022-08-23T07:09:10.103Z,21.65
2022-08-23T07:11:36.759Z,21.48
2022-08-23T07:14:07.961Z,21.36
2022-08-23T07:16:37.197Z,21.12
2022-08-23T07:19:04.412Z,21.21
2022-08-23T07:21:31.613Z,21.37
2022-08-23T07:23:58.398Z,21.83
2022-08-23T07:26:25.493Z,22.21
2022-08-23T07:28:54.054Z,22.62
2022-08-23T07:31:30.967Z,23.02
2022-08-23T07:34:02.768Z,22.76
2022-08-23T07:36:31.117Z,22.51
2022-08-23T07:38:57.990Z,22.26
2022-08-23T07:41:31.119Z,21.90
2022-08-23T07:44:03.994Z,21.67
2022-08-23T07:46:31.984Z,21.62
2022-08-23T07:49:00.015Z,21.52
2022-08-23T07:51:28.112Z,21.57
2022-08-23T07:53:54.824Z,21.65
2022-08-23T07:56:22.099Z,21.69
2022-08-23T07:58:50.054Z,21.73
2022-08-23T08:01:22.459Z,21.91
2022-08-23T08:03:52.628Z,22.59
2022-08-23T08:06:21.666Z,22.77
2022-08-23T08:08:49.244Z,23.29
2022-08-23T08:11:18.703Z,23.12
2022-08-23T08:13:48.258Z,23.30
2022-08-23T08:16:23.518Z,23.41
2022-08-23T08:18:50.387Z,23.48
2022-08-23T08:21:18.202Z,23.89
2022-08-23T08:23:44.941Z,23.82
2022-08-23T08:26:11.650Z,23.91
2022-08-23T08:28:39.530Z,23.74
2022-08-23T08:31:06.576Z,23.70
2022-08-23T08:33:34.380Z,23.84
2022-08-23T08:36:03.973Z,24.42
2022-08-23T08:38:31.827Z,24.54
2022-08-23T08:41:20.852Z,24.44
2022-08-23T08:44:03.722Z,24.37
2022-08-23T08:46:47.843Z,24.52
2022-08-23T08:49:31.988Z,24.55
2022-08-23T08:52:36.915Z,24.42
2022-08-23T08:55:12.906Z,24.53
2022-08-23T08:57:47.134Z,24.50
2022-08-23T09:00:23.946Z,24.62
2022-08-23T09:02:50.791Z,24.91
2022-08-23T09:05:21.677Z,25.21
2022-08-23T09:08:07.884Z,25.25
2022-08-23T09:10:58.564Z,25.26
2022-08-23T09:13:46.142Z,25.24
2022-08-23T09:16:43.823Z,25.26
2022-08-23T09:19:10.621Z,25.40
2022-08-23T09:21:55.788Z,25.46
2022-08-23T09:24:22.720Z,25.33
2022-08-23T09:26:49.307Z,25.42
2022-08-23T09:29:25.742Z,25.32
2022-08-23T09:31:58.542Z,25.35
2022-08-23T09:34:31.009Z,25.34
2022-08-23T09:37:27.233Z,25.36
2022-08-23T09:40:16.471Z,25.41
2022-08-23T09:42:44.042Z,25.80
2022-08-23T09:45:36.524Z,26.08
2022-08-23T09:48:05.020Z,25.93
2022-08-23T09:50:39.911Z,26.25
2022-08-23T09:53:10.147Z,25.98
2022-08-23T09:55:43.218Z,25.82
2022-08-23T09:58:34.615Z,25.59
2022-08-23T10:01:17.073Z,25.65
2022-08-23T10:03:44.465Z,25.64
2022-08-23T10:06:15.581Z,25.87
2022-08-23T10:08:54.804Z,25.62
2022-08-23T10:11:25.717Z,26.17
2022-08-23T10:13:53.154Z,26.52
2022-08-23T10:16:29.618Z,26.83
2022-08-23T10:19:34.793Z,26.84
2022-08-23T10:22:11.388Z,26.98
2022-08-23T10:24:46.616Z,27.18
2022-08-23T10:27:52.245Z,27.49
2022-08-23T10:30:22.500Z,27.59
2022-08-23T10:33:10.859Z,27.78
2022-08-23T10:35:54.395Z,27.63
2022-08-23T10:39:03.618Z,28.00
2022-08-23T10:42:03.810Z,27.96
2022-08-23T10:44:42.180Z,27.97
2022-08-23T10:47:25.245Z,27.93
2022-08-23T10:49:54.383Z,27.77
2022-08-23T10:52:28.982Z,27.91
2022-08-23T10:55:03.907Z,28.07
2022-08-23T10:57:40.903Z,27.94
2022-08-23T11:00:19.111Z,28.11
2022-08-23T11:03:07.510Z,27.98
2022-08-23T11:05:36.436Z,27.99
2022-08-23T11:08:06.513Z,28.01
2022-08-23T11:10:39.260Z,27.88
2022-08-23T11:13:21.622Z,28.17
2022-08-23T11:16:02.225Z,28.23
2022-08-23T11:18:41.008Z,28.18
2022-08-23T11:21:18.178Z,28.19
2022-08-23T11:23:55.435Z,28.30
2022-08-23T11:26:28.404Z,28.44
2022-08-23T11:29:06.882Z,28.24
2022-08-23T11:31:42.861Z,28.31
2022-08-23T11:34:33.095Z,28.36
2022-08-23T11:37:22.029Z,28.50
2022-08-23T11:40:00.424Z,28.68
2022-08-23T11:42:46.260Z,28.22
2022-08-23T11:45:24.059Z,27.67
2022-08-23T11:48:16.139Z,28.15
2022-08-23T11:50:57.449Z,28.64
2022-08-23T11:53:36.720Z,28.74
2022-08-23T11:56:51.450Z,28.14
2022-08-23T11:59:42.024Z,27.77
2022-08-23T12:02:47.850Z,27.50
2022-08-23T12:05:23.483Z,27.48
2022-08-23T12:08:13.895Z,27.77
2022-08-23T12:10:40.387Z,27.81
2022-08-23T12:13:22.609Z,27.50
2022-08-23T12:16:16.726Z,27.45
2022-08-23T12:18:47.763Z,27.26
2022-08-23T12:21:33.238Z,27.00
2022-08-23T12:24:22.494Z,27.03
2022-08-23T12:27:07.388Z,27.29
2022-08-23T12:29:49.214Z,27.28
2022-08-23T12:32:31.123Z,27.22
2022-08-23T12:35:10.345Z,27.06
2022-08-23T12:37:49.200Z,26.93
2022-08-23T12:40:35.936Z,26.79
2022-08-23T12:43:10.877Z,26.80
2022-08-23T12:45:51.354Z,26.81
2022-08-23T12:48:23.004Z,26.96
2022-08-23T12:51:07.082Z,27.37
2022-08-23T12:53:45.751Z,27.58
2022-08-23T12:56:28.086Z,27.89
2022-08-23T12:59:04.511Z,28.10
2022-08-23T13:01:34.250Z,28.04
2022-08-23T13:04:08.331Z,27.68
2022-08-23T13:06:46.197Z,27.19
2022-08-23T13:09:36.987Z,27.32
2022-08-23T13:12:06.362Z,27.38
2022-08-23T13:14:46.781Z,27.43
2022-08-23T13:17:32.914Z,27.41
2022-08-23T13:20:02.189Z,27.19
2022-08-23T13:22:31.077Z,27.08
2022-08-23T13:28:05.785Z,27.23
2022-08-23T13:30:37.453Z,27.42
2022-08-23T13:33:04.131Z,27.18
2022-08-23T13:35:40.574Z,26.95
2022-08-23T13:38:21.398Z,27.11
2022-08-23T13:41:10.977Z,27.28
2022-08-23T13:43:43.368Z,27.43
2022-08-23T13:46:32.153Z,27.64
2022-08-23T13:49:11.061Z,27.68
2022-08-23T13:51:40.138Z,27.62
2022-08-23T13:54:10.395Z,27.69
2022-08-23T13:56:47.943Z,27.81
2022-08-23T13:59:33.704Z,27.81
2022-08-23T14:02:02.854Z,27.81
2022-08-23T14:04:29.478Z,27.88
2022-08-23T14:06:56.035Z,27.81
2022-08-23T14:09:22.640Z,27.88
2022-08-23T14:11:54.428Z,28.01
2022-08-23T14:14:21.489Z,27.70
2022-08-23T14:16:48.223Z,27.41
2022-08-23T14:19:18.014Z,27.21
2022-08-23T14:22:01.684Z,27.13
2022-08-23T14:24:28.371Z,27.42
2022-08-23T14:26:57.096Z,27.51
2022-08-23T14:29:25.337Z,27.12
2022-08-23T14:31:52.548Z,27.01
2022-08-23T14:34:20.307Z,27.21
2022-08-23T14:39:34.354Z,27.29
2022-08-23T14:42:02.020Z,27.02
2022-08-23T14:44:33.504Z,26.90
2022-08-23T14:47:03.020Z,26.87
2022-08-23T14:49:29.608Z,26.85
2022-08-23T14:51:56.159Z,26.91
2022-08-23T14:54:26.126Z,27.10
2022-08-23T14:56:53.433Z,27.28
2022-08-23T14:59:20.569Z,27.46
2022-08-23T15:01:49.869Z,27.40
2022-08-23T15:04:19.132Z,27.28
2022-08-23T15:07:07.015Z,27.11
2022-08-23T15:09:33.507Z,27.07
2022-08-23T15:14:46.877Z,27.23
2022-08-23T15:17:13.670Z,27.38
2022-08-23T15:19:40.481Z,27.32
2022-08-23T15:22:18.375Z,27.29
2022-08-23T15:24:48.108Z,27.40
2022-08-23T15:27:14.624Z,27.45
2022-08-23T15:29:41.112Z,27.54
2022-08-23T15:32:09.232Z,27.64
2022-08-23T15:34:40.130Z,27.84
2022-08-23T15:37:13.035Z,27.70
2022-08-23T15:39:40.885Z,27.68
2022-08-23T15:42:07.560Z,27.55
2022-08-23T15:44:34.054Z,27.39
2022-08-23T15:47:18.096Z,27.22
2022-08-23T15:49:44.586Z,27.06
2022-08-23T15:52:11.150Z,26.80
2022-08-23T15:54:37.717Z,26.81
2022-08-23T15:57:05.052Z,26.57
2022-08-23T15:59:36.705Z,26.60
2022-08-23T16:02:03.980Z,26.50
2022-08-23T16:04:35.436Z,26.49
2022-08-23T16:07:05.688Z,26.46
2022-08-23T16:09:34.382Z,26.48
2022-08-23T16:12:02.163Z,26.38
2022-08-23T16:14:31.086Z,26.27
2022-08-23T16:16:58.127Z,26.25
2022-08-23T16:19:25.343Z,26.12
2022-08-23T16:21:53.482Z,26.02
2022-08-23T16:24:24.497Z,25.91
2022-08-23T16:26:51.682Z,25.94
2022-08-23T16:29:20.193Z,25.92
2022-08-23T16:31:47.124Z,25.89
2022-08-23T16:34:18.994Z,25.82
2022-08-23T16:36:50.377Z,25.77
2022-08-23T16:39:17.760Z,25.65
2022-08-23T16:41:44.552Z,25.65
2022-08-23T16:44:11.241Z,25.73
2022-08-23T16:46:41.262Z,25.58
2022-08-23T16:49:08.670Z,25.55
2022-08-23T16:51:35.338Z,25.41
2022-08-23T16:54:02.715Z,25.43
2022-08-23T16:56:31.605Z,25.24
2022-08-23T16:58:58.661Z,25.09
2022-08-23T17:01:25.239Z,24.99
2022-08-23T17:03:51.828Z,24.94
2022-08-23T17:06:18.538Z,24.92
2022-08-23T17:08:45.266Z,24.87
2022-08-23T17:11:14.994Z,24.83
2022-08-23T17:13:41.905Z,24.89
2022-08-23T17:16:10.673Z,24.90
2022-08-23T17:18:38.642Z,24.84
2022-08-23T17:21:05.404Z,24.82
2022-08-23T17:23:32.011Z,24.64
2022-08-23T17:25:59.570Z,24.49
2022-08-23T17:28:26.106Z,24.47
2022-08-23T17:30:52.721Z,24.38
2022-08-23T17:33:19.565Z,24.22
2022-08-23T17:35:46.449Z,24.16
2022-08-23T17:38:13.386Z,24.09
2022-08-23T17:40:41.126Z,24.05
2022-08-23T17:43:08.157Z,23.98
2022-08-23T17:45:43.142Z,23.86
2022-08-23T17:48:10.861Z,23.73
2022-08-23T17:50:38.396Z,23.75
2022-08-23T17:53:06.481Z,23.63
2022-08-23T17:55:35.459Z,23.53
2022-08-23T17:58:04.218Z,23.44
2022-08-23T18:00:33.314Z,23.37
2022-08-23T18:03:00.342Z,23.26
2022-08-23T18:05:29.273Z,23.20
2022-08-23T18:07:55.881Z,23.18
2022-08-23T18:10:23.467Z,23.09
2022-08-23T18:12:49.993Z,23.05
2022-08-23T18:15:17.337Z,22.96
2022-08-23T18:17:44.314Z,22.94
2022-08-23T18:20:11.560Z,22.85
2022-08-23T18:22:38.631Z,22.79
2022-08-23T18:25:08.284Z,22.75
2022-08-23T18:27:53.408Z,22.70
2022-08-23T18:30:21.565Z,22.68
2022-08-23T18:32:48.208Z,22.58
2022-08-23T18:35:14.993Z,22.57
2022-08-23T18:37:41.954Z,22.52
2022-08-23T18:40:10.433Z,22.44
2022-08-23T18:42:37.679Z,22.38
2022-08-23T18:45:05.901Z,22.34
2022-08-23T18:47:34.597Z,22.35
2022-08-23T18:50:01.152Z,22.31
2022-08-23T18:52:29.171Z,22.26
2022-08-23T18:54:57.677Z,22.23
2022-08-23T18:57:24.477Z,22.23
2022-08-23T18:59:51.390Z,22.18
2022-08-23T19:02:18.240Z,22.12
2022-08-23T19:04:46.259Z,22.10
2022-08-23T19:07:12.937Z,22.16
2022-08-23T19:09:39.569Z,22.11
2022-08-23T19:12:06.530Z,22.10
2022-08-23T19:14:35.523Z,22.09
2022-08-23T19:17:04.969Z,21.98
2022-08-23T19:19:31.796Z,22.08
2022-08-23T19:21:58.433Z,22.06
2022-08-23T19:24:25.793Z,22.08
2022-08-23T19:26:52.620Z,22.04
2022-08-23T19:29:20.780Z,21.99
2022-08-23T19:31:48.589Z,21.95
2022-08-23T19:34:17.544Z,21.94
2022-08-23T19:36:48.295Z,21.87
2022-08-23T19:39:18.270Z,21.87
2022-08-23T19:41:45.157Z,21.81
2022-08-23T19:44:12.162Z,21.81
2022-08-23T19:46:41.889Z,21.76
2022-08-23T19:49:11.153Z,21.72
2022-08-23T19:51:38.298Z,21.70
2022-08-23T19:54:10.958Z,21.64
2022-08-23T19:56:47.648Z,21.55
2022-08-23T19:59:19.639Z,21.52
2022-08-23T20:01:50.297Z,21.48
2022-08-23T20:04:18.345Z,21.43
2022-08-23T20:06:45.374Z,21.41
2022-08-23T20:09:12.289Z,21.35
2022-08-23T20:11:39.754Z,21.23
2022-08-23T20:14:07.265Z,21.33
2022-08-23T20:16:36.155Z,21.23
2022-08-23T20:19:05.826Z,21.17
2022-08-23T20:21:32.743Z,21.20
2022-08-23T20:24:02.298Z,21.13
2022-08-23T20:26:44.093Z,21.06
2022-08-23T20:29:28.714Z,20.93
2022-08-23T20:31:59.740Z,20.87
2022-08-23T20:34:28.318Z,20.86
2022-08-23T20:36:56.026Z,20.79
2022-08-23T20:39:24.134Z,20.82
2022-08-23T20:41:52.364Z,20.77
2022-08-23T20:44:20.861Z,20.73
2022-08-23T20:46:51.823Z,20.64
2022-08-23T20:49:21.163Z,20.64
2022-08-23T20:51:47.914Z,20.63
2022-08-23T20:54:14.601Z,20.57
2022-08-23T20:56:41.212Z,20.51
2022-08-23T20:59:08.308Z,20.51
2022-08-23T21:01:35.560Z,20.51
2022-08-23T21:04:02.592Z,20.47
2022-08-23T21:06:37.904Z,20.46
2022-08-23T21:09:04.921Z,20.45
2022-08-23T21:11:31.433Z,20.38
2022-08-23T21:13:58.678Z,20.26
2022-08-23T21:16:25.980Z,20.31
2022-08-23T21:18:55.437Z,20.19
2022-08-23T21:21:22.896Z,20.22
2022-08-23T21:23:49.826Z,20.23
2022-08-23T21:26:17.169Z,20.11
2022-08-23T21:28:43.736Z,20.11
2022-08-23T21:31:13.449Z,20.14
2022-08-23T21:33:41.947Z,20.09
2022-08-23T21:36:09.854Z,20.08
2022-08-23T21:38:36.681Z,19.98
2022-08-23T21:41:05.678Z,19.99
2022-08-23T21:43:33.420Z,19.94
2022-08-23T21:46:00.387Z,19.90
2022-08-23T21:48:27.244Z,19.84
2022-08-23T21:50:54.068Z,19.92
2022-08-23T21:53:20.732Z,19.87
2022-08-23T21:55:47.612Z,19.78
2022-08-23T21:58:14.170Z,19.72
2022-08-23T22:00:41.567Z,19.76
2022-08-23T22:03:09.139Z,19.75
2022-08-23T22:05:43.332Z,19.72
2022-08-23T22:08:11.542Z,19.72
2022-08-23T22:10:44.917Z,19.64
2022-08-23T22:13:24.840Z,19.61
2022-08-23T22:15:51.378Z,19.58
2022-08-23T22:18:18.023Z,19.57
2022-08-23T22:20:44.542Z,19.47
2022-08-23T22:23:11.393Z,19.45
2022-08-23T22:25:37.983Z,19.44
2022-08-23T22:28:04.602Z,19.43
2022-08-23T22:30:31.147Z,19.42
2022-08-23T22:32:57.713Z,19.36
2022-08-23T22:35:24.274Z,19.29
2022-08-23T22:38:12.127Z,19.28
2022-08-23T22:40:37.460Z,19.38
2022-08-23T22:43:03.998Z,19.24
2022-08-23T22:45:30.523Z,19.15
2022-08-23T22:47:57.094Z,19.13
2022-08-23T22:50:23.682Z,19.15
2022-08-23T22:52:50.819Z,19.12
2022-08-23T22:55:17.649Z,19.12
2022-08-23T22:57:44.213Z,19.16
2022-08-23T23:00:11.433Z,19.15
2022-08-23T23:02:38.926Z,19.05
2022-08-23T23:05:07.920Z,19.06
2022-08-23T23:07:52.941Z,19.05
2022-08-23T23:10:19.604Z,19.01
2022-08-23T23:12:46.859Z,19.00
2022-08-23T23:15:13.540Z,18.98
2022-08-23T23:17:40.457Z,18.97
2022-08-23T23:20:26.159Z,18.95
2022-08-23T23:22:52.740Z,18.80
2022-08-23T23:25:20.020Z,18.82
2022-08-23T23:27:46.518Z,18.80
2022-08-23T23:30:13.456Z,18.81
2022-08-23T23:32:40.624Z,18.80
2022-08-23T23:35:10.189Z,18.80
2022-08-23T23:37:36.813Z,18.77
2022-08-23T23:40:05.423Z,18.77
2022-08-23T23:42:32.073Z,18.68
2022-08-23T23:44:58.642Z,18.73
2022-08-23T23:47:25.195Z,18.61
2022-08-23T23:49:51.775Z,18.67
2022-08-23T23:52:18.337Z,18.63
2022-08-23T23:54:46.292Z,18.64
2022-08-23T23:57:12.899Z,18.66
2022-08-23T23:59:39.978Z,18.64
